Delingha Airport


Codes: ZLDL/HXD
Name: Delingha Airport
City: Delingha
Country: China
Elevation: 9843 ft.

Photos at Delingha Airport


   Photos courtesy of SpottingLog. You can add your own sightings and photos by signing up for a free trial today.



No photos found.

Weather at Delingha Airport


Time (UTC)DescriptionTempratureWindCloud coverageVisibilityPressureHumidity
18-Apr-2024 00:00Light Snow3°C13 mph, NW100%10000m1014hPa72%
18-Apr-2024 03:00Overcast Clouds5°C4 mph, NW100%10000m1014hPa62%
18-Apr-2024 06:00Broken Clouds10°C16 mph, W78%10000m1009hPa34%
18-Apr-2024 09:00Clear Sky15°C25 mph, W1%10000m1004hPa10%
18-Apr-2024 12:00Scattered Clouds12°C18 mph, NW33%10000m1005hPa11%
18-Apr-2024 15:00Overcast Clouds11°C9 mph, W100%10000m1007hPa16%
18-Apr-2024 18:00Overcast Clouds10°C9 mph, W100%10000m1006hPa17%
18-Apr-2024 21:00Overcast Clouds9°C11 mph, SW100%10000m1007hPa23%
19-Apr-2024 00:00Overcast Clouds6°C20 mph, SW100%10000m1011hPa42%
19-Apr-2024 03:00Overcast Clouds11°C18 mph, W100%10000m1009hPa22%
19-Apr-2024 06:00Overcast Clouds14°C18 mph, W97%10000m1005hPa14%
19-Apr-2024 09:00Broken Clouds15°C20 mph, W72%10000m1002hPa11%
19-Apr-2024 12:00Scattered Clouds13°C20 mph, W49%10000m1003hPa13%
19-Apr-2024 15:00Few Clouds10°C16 mph, W12%10000m1007hPa18%
19-Apr-2024 18:00Scattered Clouds9°C13 mph, W35%10000m1008hPa22%
19-Apr-2024 21:00Overcast Clouds6°C11 mph, SW99%10000m1009hPa27%
20-Apr-2024 00:00Overcast Clouds6°C9 mph, SW100%10000m1011hPa34%
20-Apr-2024 03:00Overcast Clouds10°C13 mph, W99%10000m1010hPa22%
20-Apr-2024 06:00Overcast Clouds13°C20 mph, W99%10000m1006hPa12%
20-Apr-2024 09:00Overcast Clouds13°C20 mph, W100%10000m1003hPa9%
20-Apr-2024 12:00Overcast Clouds12°C18 mph, W100%10000m1004hPa10%
20-Apr-2024 15:00Overcast Clouds9°C7 mph, SW100%10000m1007hPa13%
20-Apr-2024 18:00Broken Clouds6°C4 mph, W75%10000m1008hPa16%
20-Apr-2024 21:00Few Clouds4°C4 mph, SW13%10000m1010hPa21%
21-Apr-2024 00:00Few Clouds5°C4 mph, S18%10000m1012hPa19%
21-Apr-2024 03:00Scattered Clouds10°C4 mph, S31%10000m1011hPa15%
21-Apr-2024 06:00Scattered Clouds14°C9 mph, W34%10000m1006hPa9%
21-Apr-2024 09:00Broken Clouds15°C11 mph, SW78%10000m1003hPa8%
21-Apr-2024 12:00Overcast Clouds13°C18 mph, SW89%10000m1004hPa9%
21-Apr-2024 15:00Overcast Clouds11°C25 mph, SW91%10000m1007hPa12%
21-Apr-2024 18:00Overcast Clouds7°C9 mph, SW98%10000m1009hPa16%
21-Apr-2024 21:00Scattered Clouds5°C2 mph, SW50%10000m1009hPa20%
22-Apr-2024 00:00Scattered Clouds5°C4 mph, S27%10000m1013hPa22%
22-Apr-2024 03:00Broken Clouds10°C4 mph, S58%10000m1012hPa15%
22-Apr-2024 06:00Scattered Clouds14°C4 mph, W34%10000m1009hPa10%
22-Apr-2024 09:00Few Clouds15°C7 mph, SW13%10000m1005hPa6%
22-Apr-2024 12:00Broken Clouds14°C16 mph, SW54%10000m1006hPa6%
22-Apr-2024 15:00Broken Clouds10°C9 mph, SW80%10000m1009hPa11%
22-Apr-2024 18:00Scattered Clouds7°C2 mph, S43%10000m1009hPa14%
22-Apr-2024 21:00Overcast Clouds6°C4 mph, SE88%10000m1010hPa15%